createdAt,value
2023-03-21T00:00:30.854Z,10.00
2023-03-21T00:02:58.104Z,10.00
2023-03-21T00:05:25.280Z,10.00
2023-03-21T00:07:52.851Z,9.90
2023-03-21T00:10:33.095Z,9.90
2023-03-21T00:13:06.433Z,9.90
2023-03-21T00:15:44.136Z,9.90
2023-03-21T00:18:18.958Z,9.90
2023-03-21T00:21:12.674Z,9.80
2023-03-21T00:23:45.014Z,9.90
2023-03-21T00:26:12.712Z,9.90
2023-03-21T00:28:44.090Z,9.80
2023-03-21T00:31:11.459Z,9.80
2023-03-21T00:33:46.450Z,9.90
2023-03-21T00:36:25.878Z,9.80
2023-03-21T00:38:54.204Z,9.80
2023-03-21T00:41:35.003Z,9.80
2023-03-21T00:44:08.186Z,9.80
2023-03-21T00:46:45.586Z,9.80
2023-03-21T00:49:16.628Z,9.80
2023-03-21T00:51:44.579Z,9.80
2023-03-21T00:54:13.066Z,9.90
2023-03-21T00:56:40.235Z,9.90
2023-03-21T00:59:07.238Z,9.90
2023-03-21T01:01:34.678Z,9.80
2023-03-21T01:04:13.642Z,9.80
2023-03-21T01:06:43.720Z,9.80
2023-03-21T01:09:22.002Z,9.90
2023-03-21T01:11:50.587Z,9.80
2023-03-21T01:14:23.324Z,9.80
2023-03-21T01:16:54.213Z,9.70
2023-03-21T01:19:50.722Z,9.70
2023-03-21T01:22:16.547Z,9.80
2023-03-21T01:24:52.935Z,9.70
2023-03-21T01:27:22.492Z,9.80
2023-03-21T01:29:49.505Z,9.80
2023-03-21T01:32:16.800Z,9.80
2023-03-21T01:34:43.815Z,9.80
2023-03-21T01:37:10.861Z,9.70
2023-03-21T01:39:37.979Z,9.80
2023-03-21T01:42:05.179Z,9.80
2023-03-21T01:44:32.412Z,9.80
2023-03-21T01:47:15.430Z,9.70
2023-03-21T01:49:47.932Z,9.80
2023-03-21T01:52:35.470Z,9.70
2023-03-21T01:55:11.763Z,9.70
2023-03-21T01:58:02.105Z,9.70
2023-03-21T02:00:32.808Z,9.70
2023-03-21T02:03:12.522Z,9.70
2023-03-21T02:06:09.804Z,9.70
2023-03-21T02:08:39.848Z,9.70
2023-03-21T02:11:10.196Z,9.70
2023-03-21T02:13:37.694Z,9.70
2023-03-21T02:16:44.713Z,9.70
2023-03-21T02:19:32.873Z,9.70
2023-03-21T02:22:32.529Z,9.70
2023-03-21T02:25:47.875Z,9.70
2023-03-21T02:28:45.265Z,9.70
2023-03-21T02:31:28.577Z,9.70
2023-03-21T02:34:17.003Z,9.70
2023-03-21T02:37:03.000Z,9.70
2023-03-21T02:40:12.476Z,9.70
2023-03-21T02:43:22.940Z,9.70
2023-03-21T02:46:19.332Z,9.60
2023-03-21T02:48:59.047Z,9.60
2023-03-21T02:51:29.090Z,9.60
2023-03-21T02:54:26.418Z,9.60
2023-03-21T02:56:56.119Z,9.60
2023-03-21T02:59:25.382Z,9.60
2023-03-21T03:01:53.663Z,9.60
2023-03-21T03:04:28.626Z,9.50
2023-03-21T03:06:58.737Z,9.50
2023-03-21T03:10:03.743Z,9.50
2023-03-21T03:12:56.512Z,9.40
2023-03-21T03:15:35.861Z,9.40
2023-03-21T03:18:29.504Z,9.40
2023-03-21T03:21:08.564Z,9.30
2023-03-21T03:23:50.807Z,9.30
2023-03-21T03:26:44.676Z,9.20
2023-03-21T03:29:17.514Z,9.20
2023-03-21T03:32:00.099Z,9.10
2023-03-21T03:34:39.548Z,9.20
2023-03-21T03:37:11.674Z,9.20
2023-03-21T03:40:10.958Z,9.20
2023-03-21T03:42:53.616Z,9.20
2023-03-21T03:45:26.570Z,9.20
2023-03-21T03:48:25.764Z,9.20
2023-03-21T03:51:02.879Z,9.20
2023-03-21T03:53:39.335Z,9.20
2023-03-21T03:56:11.600Z,9.10
2023-03-21T03:58:45.626Z,9.10
2023-03-21T04:01:14.143Z,9.10
2023-03-21T04:03:50.647Z,9.10
2023-03-21T04:06:22.202Z,9.10
2023-03-21T04:08:51.037Z,9.10
2023-03-21T04:11:21.288Z,9.10
2023-03-21T04:13:48.654Z,9.10
2023-03-21T04:16:15.922Z,9.10
2023-03-21T04:18:43.058Z,9.10
2023-03-21T04:21:15.558Z,9.10
2023-03-21T04:23:42.911Z,9.10
2023-03-21T04:26:11.380Z,9.10
2023-03-21T04:28:39.814Z,9.10
2023-03-21T04:31:24.079Z,9.10
2023-03-21T04:33:52.078Z,9.10
2023-03-21T04:36:30.701Z,9.10
2023-03-21T04:39:01.666Z,9.10
2023-03-21T04:41:29.715Z,9.10
2023-03-21T04:43:56.845Z,9.10
2023-03-21T04:46:24.685Z,9.10
2023-03-21T04:48:51.749Z,9.10
2023-03-21T04:51:18.931Z,9.10
2023-03-21T04:53:49.244Z,9.10
2023-03-21T04:56:16.729Z,9.10
2023-03-21T04:58:44.129Z,9.10
2023-03-21T05:01:14.709Z,9.10
2023-03-21T05:03:42.892Z,9.10
2023-03-21T05:06:10.854Z,9.20
2023-03-21T05:08:37.992Z,9.20
2023-03-21T05:11:06.048Z,9.30
2023-03-21T05:13:33.225Z,9.30
2023-03-21T05:16:00.392Z,9.30
2023-03-21T05:18:27.404Z,9.30
2023-03-21T05:20:55.378Z,9.30
2023-03-21T05:23:23.991Z,9.30
2023-03-21T05:25:51.631Z,9.30
2023-03-21T05:28:18.731Z,9.30
2023-03-21T05:30:47.131Z,9.30
2023-03-21T05:33:14.527Z,9.30
2023-03-21T05:35:41.671Z,9.30
2023-03-21T05:38:09.277Z,9.40
2023-03-21T05:40:36.368Z,9.40
2023-03-21T05:43:03.473Z,9.40
2023-03-21T05:45:31.014Z,9.40
2023-03-21T05:47:58.111Z,9.40
2023-03-21T05:50:25.478Z,9.40
2023-03-21T05:52:52.708Z,9.40
2023-03-21T05:55:22.420Z,9.40
2023-03-21T05:57:50.055Z,9.50
2023-03-21T06:00:18.197Z,9.50
2023-03-21T06:02:45.894Z,9.50
2023-03-21T06:05:12.996Z,9.50
2023-03-21T06:07:40.260Z,9.60
2023-03-21T06:10:08.469Z,9.60
2023-03-21T06:12:35.607Z,9.60
2023-03-21T06:15:05.548Z,9.60
2023-03-21T06:17:33.059Z,9.60
2023-03-21T06:20:01.210Z,9.60
2023-03-21T06:22:29.022Z,9.60
2023-03-21T06:24:55.993Z,9.60
2023-03-21T06:27:23.541Z,9.70
2023-03-21T06:29:50.591Z,9.70
2023-03-21T06:32:17.933Z,9.70
2023-03-21T06:34:45.200Z,9.70
2023-03-21T06:37:12.230Z,9.80
2023-03-21T06:39:39.380Z,9.80
2023-03-21T06:42:06.672Z,9.70
2023-03-21T06:44:33.764Z,9.80
2023-03-21T06:47:01.369Z,9.80
2023-03-21T06:49:28.502Z,9.80
2023-03-21T06:51:55.773Z,9.90
2023-03-21T06:54:22.850Z,9.80
2023-03-21T06:56:50.281Z,9.90
2023-03-21T06:59:17.770Z,9.90
2023-03-21T07:01:44.750Z,9.90
2023-03-21T07:04:12.301Z,9.90
2023-03-21T07:06:39.456Z,10.00
2023-03-21T07:09:07.207Z,10.00
2023-03-21T07:11:37.162Z,10.00
2023-03-21T07:14:05.480Z,10.00
2023-03-21T07:16:32.567Z,10.10
2023-03-21T07:18:59.874Z,10.10
2023-03-21T07:21:27.015Z,10.10
2023-03-21T07:23:54.053Z,10.10
2023-03-21T07:26:21.166Z,10.10
2023-03-21T07:28:48.308Z,10.00
2023-03-21T07:31:17.737Z,10.00
2023-03-21T07:33:44.928Z,10.10
2023-03-21T07:36:16.415Z,10.10
2023-03-21T07:38:45.442Z,10.00
2023-03-21T07:41:13.660Z,10.00
2023-03-21T07:43:40.916Z,10.00
2023-03-21T07:46:08.470Z,10.10
2023-03-21T07:48:35.718Z,10.00
2023-03-21T07:51:02.867Z,10.10
2023-03-21T07:53:30.181Z,10.10
2023-03-21T07:55:57.379Z,10.10
2023-03-21T07:58:26.365Z,10.10
2023-03-21T08:00:55.799Z,10.10
2023-03-21T08:03:24.050Z,10.10
2023-03-21T08:05:51.483Z,10.00
2023-03-21T08:08:18.612Z,9.90
2023-03-21T08:10:45.915Z,9.90
2023-03-21T08:13:13.897Z,10.00
2023-03-21T08:15:42.562Z,10.00
2023-03-21T08:18:11.542Z,10.00
2023-03-21T08:20:38.838Z,9.90
2023-03-21T08:23:06.056Z,9.90
2023-03-21T08:25:33.331Z,9.90
2023-03-21T08:28:00.929Z,9.90
2023-03-21T08:30:29.763Z,9.90
2023-03-21T08:33:01.139Z,9.90
2023-03-21T08:35:29.513Z,9.90
2023-03-21T08:37:57.357Z,10.00
2023-03-21T08:40:24.627Z,9.90
2023-03-21T08:42:54.928Z,10.00
2023-03-21T08:45:22.984Z,10.00
2023-03-21T08:47:50.352Z,10.10
2023-03-21T08:50:21.496Z,10.10
2023-03-21T08:52:49.375Z,10.10
2023-03-21T08:55:18.162Z,10.10
2023-03-21T08:57:45.926Z,10.10
2023-03-21T09:00:18.491Z,10.20
2023-03-21T09:02:48.674Z,10.30
2023-03-21T09:05:16.971Z,10.30
2023-03-21T09:07:45.772Z,10.30
2023-03-21T09:10:23.141Z,10.40
2023-03-21T09:12:52.977Z,10.40
2023-03-21T09:15:22.140Z,10.50
2023-03-21T09:17:52.956Z,10.50
2023-03-21T09:20:26.521Z,10.60
2023-03-21T09:22:54.349Z,10.70
2023-03-21T09:25:21.637Z,10.80
2023-03-21T09:27:49.178Z,10.70
2023-03-21T09:30:19.834Z,10.80
2023-03-21T09:32:49.526Z,10.80
2023-03-21T09:35:18.931Z,10.90
2023-03-21T09:37:50.139Z,10.90
2023-03-21T09:40:30.770Z,11.00
2023-03-21T09:43:10.807Z,10.90
2023-03-21T09:46:04.195Z,11.20
2023-03-21T09:48:57.734Z,11.30
2023-03-21T09:51:31.628Z,11.40
2023-03-21T09:54:03.982Z,11.40
2023-03-21T09:56:31.233Z,11.60
2023-03-21T09:59:00.723Z,11.70
2023-03-21T10:01:34.425Z,11.70
2023-03-21T10:04:12.904Z,11.50
2023-03-21T10:06:43.027Z,11.50
2023-03-21T10:09:24.501Z,11.50
2023-03-21T10:12:02.419Z,11.60
2023-03-21T10:14:42.302Z,11.60
2023-03-21T10:17:43.756Z,11.70
2023-03-21T10:20:11.995Z,11.60
2023-03-21T10:22:39.926Z,11.60
2023-03-21T10:25:11.090Z,11.70
2023-03-21T10:27:38.466Z,11.80
2023-03-21T10:30:08.741Z,11.80
2023-03-21T10:32:35.943Z,11.90
2023-03-21T10:35:05.080Z,12.00
2023-03-21T10:37:32.672Z,12.10
2023-03-21T10:39:59.889Z,12.10
2023-03-21T10:42:31.527Z,12.40
2023-03-21T10:44:59.025Z,12.70
2023-03-21T10:47:33.951Z,12.80
2023-03-21T10:50:13.875Z,13.00
2023-03-21T10:52:56.098Z,12.90
2023-03-21T10:55:34.398Z,13.10
2023-03-21T10:58:19.065Z,13.10
2023-03-21T11:00:47.855Z,13.00
2023-03-21T11:03:44.944Z,13.10
2023-03-21T11:06:23.325Z,13.20
2023-03-21T11:09:13.938Z,13.20
2023-03-21T11:11:54.948Z,13.20
2023-03-21T11:14:51.159Z,13.50
2023-03-21T11:17:18.120Z,13.40
2023-03-21T11:19:58.468Z,13.30
2023-03-21T11:22:30.925Z,13.30
2023-03-21T11:25:01.789Z,13.20
2023-03-21T11:27:30.295Z,13.30
2023-03-21T11:30:01.005Z,13.20
2023-03-21T11:32:36.250Z,13.20
2023-03-21T11:35:09.419Z,13.20
2023-03-21T11:37:47.995Z,13.20
2023-03-21T11:40:30.046Z,13.50
2023-03-21T11:43:18.151Z,13.70
2023-03-21T11:46:08.175Z,14.00
2023-03-21T11:48:48.980Z,13.80
2023-03-21T11:51:50.646Z,13.70
2023-03-21T11:54:33.965Z,13.80
2023-03-21T11:57:31.428Z,13.90
2023-03-21T12:00:29.453Z,14.10
2023-03-21T12:03:22.334Z,14.10
2023-03-21T12:06:11.342Z,14.10
2023-03-21T12:09:25.712Z,14.30
2023-03-21T12:12:14.544Z,14.20
2023-03-21T12:15:06.454Z,14.50
2023-03-21T12:18:06.618Z,14.50
2023-03-21T12:20:40.578Z,14.70
2023-03-21T12:23:13.720Z,14.40
2023-03-21T12:26:03.456Z,14.40
2023-03-21T12:28:43.322Z,14.30
2023-03-21T12:32:14.810Z,14.40
2023-03-21T12:35:41.908Z,14.20
2023-03-21T12:38:33.881Z,14.60
2023-03-21T12:41:10.499Z,14.90
2023-03-21T12:44:11.333Z,14.70
2023-03-21T12:47:02.755Z,14.70
2023-03-21T12:49:45.786Z,14.80
2023-03-21T12:52:16.595Z,14.70
2023-03-21T12:55:15.165Z,14.80
2023-03-21T12:58:08.261Z,14.80
2023-03-21T13:00:44.729Z,14.50
2023-03-21T13:03:30.641Z,14.40
2023-03-21T13:06:07.489Z,14.40
2023-03-21T13:09:36.777Z,14.70
2023-03-21T13:12:14.155Z,14.80
2023-03-21T13:15:12.535Z,14.80
2023-03-21T13:17:51.599Z,14.90
2023-03-21T13:20:56.017Z,15.10
2023-03-21T13:23:33.704Z,15.20
2023-03-21T13:26:01.067Z,15.10
2023-03-21T13:28:34.429Z,15.30
2023-03-21T13:31:26.321Z,15.50
2023-03-21T13:33:59.889Z,15.40
2023-03-21T13:36:31.854Z,15.40
2023-03-21T13:39:06.144Z,15.50
2023-03-21T13:41:43.597Z,15.60
2023-03-21T13:44:25.867Z,15.50
2023-03-21T13:47:05.038Z,15.40
2023-03-21T13:49:36.862Z,15.40
2023-03-21T13:52:28.219Z,15.30
2023-03-21T13:54:57.447Z,15.50
2023-03-21T13:57:27.225Z,15.70
2023-03-21T14:00:30.681Z,15.80
2023-03-21T14:03:06.381Z,15.80
2023-03-21T14:05:35.404Z,15.70
2023-03-21T14:08:15.776Z,15.70
2023-03-21T14:10:52.586Z,15.80
2023-03-21T14:13:24.714Z,15.60
2023-03-21T14:16:07.680Z,15.70
2023-03-21T14:18:55.259Z,15.70
2023-03-21T14:21:28.294Z,15.90
2023-03-21T14:24:07.248Z,15.80
2023-03-21T14:26:47.569Z,15.80
2023-03-21T14:29:34.391Z,15.90
2023-03-21T14:32:03.590Z,15.80
2023-03-21T14:34:35.162Z,15.70
2023-03-21T14:37:02.276Z,15.60
2023-03-21T14:39:33.710Z,15.60
2023-03-21T14:42:15.068Z,15.70
2023-03-21T14:44:56.915Z,15.70
2023-03-21T14:47:30.056Z,15.70
2023-03-21T14:49:58.356Z,15.70
2023-03-21T14:52:33.432Z,15.50
2023-03-21T14:55:03.171Z,15.40
2023-03-21T14:57:33.441Z,15.40
2023-03-21T15:00:12.670Z,15.20
2023-03-21T15:02:42.004Z,15.10
2023-03-21T15:05:42.689Z,15.00
2023-03-21T15:08:19.756Z,15.00
2023-03-21T15:11:07.138Z,14.90
2023-03-21T15:13:40.247Z,15.00
2023-03-21T15:16:09.759Z,14.90
2023-03-21T15:18:41.396Z,14.70
2023-03-21T15:21:30.351Z,14.70
2023-03-21T15:24:05.518Z,14.60
2023-03-21T15:26:32.734Z,14.70
2023-03-21T15:29:00.804Z,14.70
2023-03-21T15:31:37.076Z,14.70
2023-03-21T15:34:04.960Z,14.70
2023-03-21T15:36:44.115Z,14.80
2023-03-21T15:39:17.165Z,14.80
2023-03-21T15:42:02.140Z,14.90
2023-03-21T15:44:30.187Z,15.00
2023-03-21T15:46:57.958Z,15.10
2023-03-21T15:49:34.227Z,15.10
2023-03-21T15:52:07.840Z,15.00
2023-03-21T15:54:48.077Z,15.00
2023-03-21T15:57:34.133Z,15.10
2023-03-21T16:00:12.020Z,15.40
2023-03-21T16:02:42.579Z,15.50
2023-03-21T16:05:34.022Z,15.30
2023-03-21T16:08:27.413Z,15.30
2023-03-21T16:10:54.514Z,15.10
2023-03-21T16:13:21.565Z,15.00
2023-03-21T16:15:48.643Z,14.90
2023-03-21T16:18:18.280Z,14.70
2023-03-21T16:20:47.166Z,14.60
2023-03-21T16:23:16.134Z,14.50
2023-03-21T16:25:47.146Z,14.50
2023-03-21T16:28:17.768Z,14.40
2023-03-21T16:30:45.546Z,14.30
2023-03-21T16:33:13.933Z,14.20
2023-03-21T16:35:41.399Z,14.20
2023-03-21T16:38:11.950Z,14.20
2023-03-21T16:40:42.374Z,14.20
2023-03-21T16:43:11.466Z,14.20
2023-03-21T16:45:38.680Z,14.10
2023-03-21T16:48:08.889Z,14.10
2023-03-21T16:50:42.657Z,14.00
2023-03-21T16:53:10.298Z,13.80
2023-03-21T16:55:39.039Z,13.50
2023-03-21T16:58:06.841Z,13.50
2023-03-21T17:00:34.215Z,13.40
2023-03-21T17:03:12.331Z,13.40
2023-03-21T17:05:39.441Z,13.30
2023-03-21T17:08:06.646Z,13.30
2023-03-21T17:10:34.014Z,13.30
2023-03-21T17:13:01.062Z,13.20
2023-03-21T17:15:29.299Z,13.20
2023-03-21T17:17:56.438Z,13.20
2023-03-21T17:20:30.861Z,13.10
2023-03-21T17:22:58.139Z,13.00
2023-03-21T17:25:25.469Z,12.90
2023-03-21T17:27:54.118Z,12.90
2023-03-21T17:30:32.174Z,12.90
2023-03-21T17:32:59.921Z,12.80
2023-03-21T17:35:28.990Z,12.80
2023-03-21T17:37:58.491Z,12.80
2023-03-21T17:40:29.945Z,12.80
2023-03-21T17:42:58.602Z,12.70
2023-03-21T17:45:26.013Z,12.70
2023-03-21T17:47:54.901Z,12.60
2023-03-21T17:50:26.396Z,12.60
2023-03-21T17:52:56.476Z,12.60
2023-03-21T17:55:23.930Z,12.60
2023-03-21T17:57:51.227Z,12.50
2023-03-21T18:00:23.293Z,12.60
2023-03-21T18:02:51.779Z,12.60
2023-03-21T18:05:21.703Z,12.50
2023-03-21T18:10:37.397Z,12.40
2023-03-21T18:13:04.694Z,12.40
2023-03-21T18:15:32.100Z,12.40
2023-03-21T18:17:59.584Z,12.40
2023-03-21T18:20:49.797Z,12.30
2023-03-21T18:23:18.866Z,12.30
2023-03-21T18:25:46.022Z,12.30
2023-03-21T18:28:13.838Z,12.30
2023-03-21T18:31:07.065Z,12.20
2023-03-21T18:33:30.193Z,12.20
2023-03-21T18:35:59.346Z,12.20
2023-03-21T18:38:28.077Z,12.10
2023-03-21T18:40:56.325Z,12.10
2023-03-21T18:46:11.804Z,12.10
2023-03-21T18:48:39.330Z,12.10
2023-03-21T18:51:07.167Z,12.00
2023-03-21T18:53:34.212Z,12.00
2023-03-21T18:56:02.002Z,12.00
2023-03-21T18:58:29.463Z,12.00
2023-03-21T19:00:59.714Z,12.00
2023-03-21T19:03:36.712Z,12.00
2023-03-21T19:06:06.477Z,11.90
2023-03-21T19:08:41.796Z,11.90
2023-03-21T19:11:10.101Z,11.90
2023-03-21T19:13:37.201Z,11.90
2023-03-21T19:16:04.546Z,11.90
2023-03-21T19:18:54.101Z,11.90
2023-03-21T19:21:21.561Z,11.90
2023-03-21T19:26:36.432Z,11.90
2023-03-21T19:29:03.904Z,11.90
2023-03-21T19:31:31.431Z,11.80
2023-03-21T19:33:59.227Z,11.90
2023-03-21T19:36:26.689Z,11.90
2023-03-21T19:38:53.948Z,11.90
2023-03-21T19:41:21.188Z,11.90
2023-03-21T19:43:54.541Z,11.90
2023-03-21T19:46:25.172Z,11.90
2023-03-21T19:48:57.165Z,11.90
2023-03-21T19:51:29.287Z,11.90
2023-03-21T19:54:00.150Z,11.90
2023-03-21T19:56:27.967Z,11.90
2023-03-21T19:58:58.582Z,11.90
2023-03-21T20:01:26.353Z,11.90
2023-03-21T20:03:53.707Z,11.80
2023-03-21T20:06:25.019Z,11.90
2023-03-21T20:11:40.954Z,11.90
2023-03-21T20:14:08.722Z,11.90
2023-03-21T20:16:37.098Z,11.90
2023-03-21T20:19:06.236Z,11.90
2023-03-21T20:21:44.504Z,11.90
2023-03-21T20:24:17.052Z,11.90
2023-03-21T20:26:45.892Z,11.90
2023-03-21T20:32:02.641Z,11.90
2023-03-21T20:34:30.620Z,11.90
2023-03-21T20:36:58.632Z,11.90
2023-03-21T20:39:28.022Z,11.90
2023-03-21T20:41:58.922Z,11.90
2023-03-21T20:44:52.268Z,11.90
2023-03-21T20:47:15.440Z,11.90
2023-03-21T20:49:42.774Z,11.80
2023-03-21T20:54:57.533Z,11.70
2023-03-21T20:57:27.168Z,11.60
2023-03-21T20:59:55.363Z,11.60
2023-03-21T21:02:23.801Z,11.60
2023-03-21T21:05:23.591Z,11.60
2023-03-21T21:07:46.044Z,11.60
2023-03-21T21:10:16.859Z,11.50
2023-03-21T21:12:45.343Z,11.50
2023-03-21T21:15:17.027Z,11.50
2023-03-21T21:20:33.836Z,11.40
2023-03-21T21:23:01.252Z,11.40
2023-03-21T21:25:32.109Z,11.40
2023-03-21T21:28:02.025Z,11.40
2023-03-21T21:30:32.808Z,11.30
2023-03-21T21:33:00.953Z,11.30
2023-03-21T21:35:28.749Z,11.30
2023-03-21T21:37:56.015Z,11.30
2023-03-21T21:40:23.559Z,11.30
2023-03-21T21:42:51.398Z,11.20
2023-03-21T21:45:20.270Z,11.30
2023-03-21T21:47:47.657Z,11.20
2023-03-21T21:50:14.998Z,11.30
2023-03-21T21:52:43.945Z,11.30
2023-03-21T21:55:11.294Z,11.20
2023-03-21T21:57:39.840Z,11.10
2023-03-21T22:00:12.993Z,11.10
2023-03-21T22:02:43.026Z,11.10
2023-03-21T22:05:10.771Z,11.00
2023-03-21T22:07:39.466Z,10.90
2023-03-21T22:10:07.182Z,10.90
2023-03-21T22:12:34.853Z,10.80
2023-03-21T22:15:02.990Z,10.80
2023-03-21T22:17:30.105Z,10.70
2023-03-21T22:20:05.760Z,10.70
2023-03-21T22:22:35.318Z,10.70
2023-03-21T22:25:04.950Z,10.60
2023-03-21T22:27:32.385Z,10.60
2023-03-21T22:30:04.907Z,10.50
2023-03-21T22:32:36.934Z,10.50
2023-03-21T22:35:06.158Z,10.50
2023-03-21T22:37:36.576Z,10.50
2023-03-21T22:40:08.105Z,10.50
2023-03-21T22:42:36.619Z,10.40
2023-03-21T22:45:06.183Z,10.30
2023-03-21T22:47:34.086Z,10.30
2023-03-21T22:50:01.489Z,10.20
2023-03-21T22:52:28.464Z,10.20
2023-03-21T22:54:55.532Z,10.20
2023-03-21T22:57:22.715Z,10.20
2023-03-21T22:59:49.928Z,10.10
2023-03-21T23:02:17.103Z,10.10
2023-03-21T23:04:44.728Z,10.00
2023-03-21T23:07:11.812Z,10.00
2023-03-21T23:09:38.996Z,10.00
2023-03-21T23:12:06.356Z,10.00
2023-03-21T23:14:33.351Z,10.00
2023-03-21T23:17:02.642Z,10.10
2023-03-21T23:19:30.633Z,10.10
2023-03-21T23:21:58.015Z,10.00
2023-03-21T23:24:25.636Z,10.00
2023-03-21T23:26:53.253Z,10.00
2023-03-21T23:29:20.363Z,10.00
2023-03-21T23:31:47.449Z,10.00
2023-03-21T23:34:15.012Z,10.00
2023-03-21T23:36:42.340Z,10.00
2023-03-21T23:39:10.446Z,9.80
2023-03-21T23:41:37.675Z,9.80
2023-03-21T23:44:05.378Z,9.70
2023-03-21T23:46:32.744Z,9.60
2023-03-21T23:48:59.878Z,9.70
2023-03-21T23:51:27.019Z,9.60
2023-03-21T23:53:56.892Z,9.50
2023-03-21T23:56:26.083Z,9.50
2023-03-21T23:58:53.756Z,9.50
